createdAt,value
2023-02-18T00:00:21.114Z,28.65
2023-02-18T00:02:52.621Z,27.77
2023-02-18T00:05:19.871Z,32.72
2023-02-18T00:07:46.775Z,40.90
2023-02-18T00:10:15.574Z,29.98
2023-02-18T00:12:42.682Z,38.20
2023-02-18T00:15:09.999Z,43.58
2023-02-18T00:17:45.231Z,31.98
2023-02-18T00:20:15.000Z,10.07
2023-02-18T00:22:41.713Z,24.95
2023-02-18T00:25:10.972Z,34.95
2023-02-18T00:27:37.827Z,45.92
2023-02-18T00:30:08.053Z,39.47
2023-02-18T00:32:38.100Z,42.58
2023-02-18T00:35:05.525Z,43.13
2023-02-18T00:37:41.773Z,33.10
2023-02-18T00:40:17.801Z,28.42
2023-02-18T00:42:44.785Z,47.97
2023-02-18T00:45:16.799Z,35.35
2023-02-18T00:47:43.672Z,11.40
2023-02-18T00:50:11.068Z,11.07
2023-02-18T00:53:18.277Z,23.98
2023-02-18T00:55:49.682Z,37.20
2023-02-18T00:58:19.516Z,34.03
2023-02-18T01:00:46.823Z,37.25
2023-02-18T01:03:14.264Z,47.15
2023-02-18T01:05:41.742Z,27.77
2023-02-18T01:08:22.041Z,53.15
2023-02-18T01:14:25.355Z,16.40
2023-02-18T01:17:01.376Z,30.42
2023-02-18T01:19:28.182Z,37.08
2023-02-18T01:21:55.108Z,36.63
2023-02-18T01:24:22.254Z,36.20
2023-02-18T01:26:49.152Z,35.03
2023-02-18T01:29:21.023Z,24.98
2023-02-18T01:31:48.830Z,26.83
2023-02-18T01:34:15.720Z,45.65
2023-02-18T01:36:44.625Z,42.85
2023-02-18T01:39:14.393Z,38.70
2023-02-18T01:41:41.422Z,42.72
2023-02-18T01:44:11.214Z,41.67
2023-02-18T01:46:38.245Z,45.78
2023-02-18T01:49:06.725Z,42.13
2023-02-18T01:51:45.184Z,26.23
2023-02-18T01:54:17.848Z,19.52
2023-02-18T01:56:57.262Z,37.03
2023-02-18T01:59:50.238Z,57.55
2023-02-18T02:02:25.348Z,38.25
2023-02-18T02:04:55.108Z,39.72
2023-02-18T02:07:25.131Z,43.70
2023-02-18T02:15:15.398Z,42.35
2023-02-18T02:18:21.725Z,44.47
2023-02-18T02:21:25.739Z,25.15
2023-02-18T02:23:52.361Z,44.08
2023-02-18T02:26:32.000Z,45.40
2023-02-18T02:29:30.465Z,40.35
2023-02-18T02:32:32.401Z,47.25
2023-02-18T02:35:26.721Z,62.80
2023-02-18T02:38:07.772Z,48.88
2023-02-18T02:40:52.361Z,52.03
2023-02-18T02:44:07.234Z,42.67
2023-02-18T02:46:44.371Z,43.25
2023-02-18T02:49:45.393Z,27.98
2023-02-18T02:52:14.934Z,27.30
2023-02-18T02:54:41.614Z,16.95
2023-02-18T02:57:28.537Z,32.00
2023-02-18T03:00:00.632Z,19.35
2023-02-18T03:03:07.692Z,21.77
2023-02-18T03:08:17.796Z,19.23
2023-02-18T03:11:04.629Z,18.00
2023-02-18T03:13:53.767Z,14.48
2023-02-18T03:16:45.718Z,13.48
2023-02-18T03:19:37.056Z,15.60
2023-02-18T03:22:25.468Z,19.15
2023-02-18T03:24:54.919Z,13.52
2023-02-18T03:27:32.625Z,17.83
2023-02-18T03:30:10.238Z,7.85
2023-02-18T03:32:37.128Z,18.70
2023-02-18T03:35:10.246Z,11.48
2023-02-18T03:37:42.893Z,19.52
2023-02-18T03:42:41.714Z,9.38
2023-02-18T03:45:08.497Z,8.60
2023-02-18T03:47:35.492Z,19.58
2023-02-18T03:50:02.313Z,15.75
2023-02-18T03:52:32.100Z,15.48
2023-02-18T03:54:58.848Z,11.52
2023-02-18T03:57:25.695Z,6.15
2023-02-18T03:59:52.418Z,16.65
2023-02-18T04:02:19.087Z,13.75
2023-02-18T04:04:45.736Z,12.00
2023-02-18T04:07:12.604Z,13.20
2023-02-18T04:09:44.488Z,13.10
2023-02-18T04:12:11.184Z,11.13
2023-02-18T04:14:37.823Z,12.93
2023-02-18T04:17:04.438Z,12.05
2023-02-18T04:19:31.131Z,13.57
2023-02-18T04:21:58.045Z,13.77
2023-02-18T04:24:26.692Z,18.60
2023-02-18T04:26:53.342Z,14.48
2023-02-18T04:29:19.952Z,10.20
2023-02-18T04:31:46.695Z,7.70
2023-02-18T04:34:13.490Z,9.18
2023-02-18T04:36:40.152Z,15.50
2023-02-18T04:39:08.222Z,7.43
2023-02-18T04:41:34.894Z,9.18
2023-02-18T04:44:01.746Z,10.05
2023-02-18T04:46:28.640Z,10.23
2023-02-18T04:48:55.348Z,6.95
2023-02-18T04:51:22.007Z,8.57
2023-02-18T04:53:49.972Z,5.82
2023-02-18T04:56:16.620Z,4.65
2023-02-18T04:58:43.323Z,7.28
2023-02-18T05:01:10.902Z,6.28
2023-02-18T05:03:37.639Z,10.77
2023-02-18T05:06:04.670Z,8.68
2023-02-18T05:08:51.306Z,11.95
2023-02-18T05:11:18.184Z,11.43
2023-02-18T05:13:44.856Z,16.00
2023-02-18T05:16:11.909Z,16.63
2023-02-18T05:18:42.008Z,22.65
2023-02-18T05:21:09.093Z,11.77
2023-02-18T05:23:38.798Z,14.10
2023-02-18T05:26:05.504Z,13.55
2023-02-18T05:28:32.296Z,16.80
2023-02-18T05:30:59.107Z,8.13
2023-02-18T05:33:25.851Z,9.10
2023-02-18T05:35:52.601Z,11.93
2023-02-18T05:38:19.814Z,13.70
2023-02-18T05:40:46.540Z,11.63
2023-02-18T05:43:13.528Z,16.13
2023-02-18T05:45:40.193Z,16.50
2023-02-18T05:48:07.356Z,8.82
2023-02-18T05:50:34.518Z,13.45
2023-02-18T05:53:06.937Z,11.60
2023-02-18T05:55:38.891Z,7.95
2023-02-18T05:58:06.525Z,10.98
2023-02-18T06:00:33.485Z,14.68
2023-02-18T06:03:00.334Z,11.48
2023-02-18T06:05:27.107Z,4.65
2023-02-18T06:07:56.303Z,19.73
2023-02-18T06:10:23.343Z,11.52
2023-02-18T06:12:50.271Z,9.38
2023-02-18T06:15:16.964Z,7.13
2023-02-18T06:17:46.657Z,9.57
2023-02-18T06:20:16.409Z,12.13
2023-02-18T06:22:43.102Z,9.40
2023-02-18T06:25:09.751Z,17.02
2023-02-18T06:27:36.457Z,12.27
2023-02-18T06:30:04.044Z,15.27
2023-02-18T06:32:31.061Z,11.07
2023-02-18T06:34:57.688Z,10.07
2023-02-18T06:37:24.359Z,11.55
2023-02-18T06:39:51.057Z,5.90
2023-02-18T06:42:17.704Z,21.38
2023-02-18T06:44:44.310Z,18.35
2023-02-18T06:47:11.237Z,18.10
2023-02-18T06:49:39.002Z,11.55
2023-02-18T06:52:06.209Z,18.17
2023-02-18T06:54:33.914Z,20.98
2023-02-18T06:57:00.652Z,20.45
2023-02-18T06:59:27.527Z,28.67
2023-02-18T07:01:54.457Z,23.27
2023-02-18T07:04:21.132Z,18.88
2023-02-18T07:06:47.815Z,28.55
2023-02-18T07:09:14.518Z,15.57
2023-02-18T07:11:41.192Z,9.40
2023-02-18T07:14:08.419Z,15.32
2023-02-18T07:16:35.163Z,13.55
2023-02-18T07:19:01.874Z,20.30
2023-02-18T07:21:28.542Z,10.25
2023-02-18T07:23:55.203Z,17.38
2023-02-18T07:26:21.931Z,16.83
2023-02-18T07:28:48.522Z,12.68
2023-02-18T07:31:15.449Z,20.08
2023-02-18T07:33:42.120Z,26.83
2023-02-18T07:36:09.939Z,11.65
2023-02-18T07:38:43.025Z,22.98
2023-02-18T07:41:21.633Z,16.23
2023-02-18T07:43:48.990Z,21.98
2023-02-18T07:46:16.123Z,15.63
2023-02-18T07:48:43.453Z,10.63
2023-02-18T07:51:12.034Z,14.98
2023-02-18T07:53:39.578Z,13.52
2023-02-18T07:56:07.041Z,16.33
2023-02-18T07:58:36.408Z,8.60
2023-02-18T08:01:12.003Z,14.13
2023-02-18T08:03:38.845Z,21.52
2023-02-18T08:06:06.616Z,17.55
2023-02-18T08:08:36.684Z,14.18
2023-02-18T08:11:13.379Z,6.90
2023-02-18T08:34:45.040Z,18.98
2023-02-18T08:37:11.750Z,21.13
2023-02-18T08:39:39.884Z,17.75
2023-02-18T08:42:06.853Z,5.57
2023-02-18T08:44:33.502Z,28.33
2023-02-18T08:47:00.150Z,18.02
2023-02-18T08:49:26.978Z,14.63
2023-02-18T08:51:57.289Z,22.65
2023-02-18T08:54:25.075Z,16.27
2023-02-18T08:57:00.488Z,20.92
2023-02-18T08:59:27.277Z,13.75
2023-02-18T09:01:54.037Z,8.65
2023-02-18T09:04:21.442Z,26.85
2023-02-18T09:06:50.171Z,13.05
2023-02-18T09:09:17.942Z,26.15
2023-02-18T09:11:45.672Z,19.40
2023-02-18T09:14:12.390Z,11.23
2023-02-18T09:16:42.296Z,8.07
2023-02-18T09:19:09.438Z,13.70
2023-02-18T09:21:36.452Z,20.33
2023-02-18T09:24:03.274Z,10.93
2023-02-18T09:26:30.072Z,11.48
2023-02-18T09:28:57.469Z,15.77
2023-02-18T09:31:29.253Z,12.27
2023-02-18T09:33:59.058Z,8.98
2023-02-18T09:36:27.219Z,13.23
2023-02-18T09:38:54.328Z,7.75
2023-02-18T09:41:44.591Z,14.27
2023-02-18T09:44:19.732Z,9.45
2023-02-18T09:46:59.425Z,18.77
2023-02-18T09:49:41.695Z,11.13
2023-02-18T09:52:16.406Z,17.95
2023-02-18T09:57:51.128Z,15.23
2023-02-18T10:00:40.113Z,14.20
2023-02-18T10:03:20.180Z,12.73
2023-02-18T10:06:00.443Z,13.50
2023-02-18T10:08:48.242Z,4.25
2023-02-18T10:11:22.384Z,9.35
2023-02-18T10:13:49.878Z,9.88
2023-02-18T10:16:19.347Z,10.90
2023-02-18T10:18:49.759Z,16.83
2023-02-18T10:21:20.690Z,15.18
2023-02-18T10:24:25.577Z,9.43
2023-02-18T10:26:54.701Z,14.00
2023-02-18T10:29:23.020Z,20.45
2023-02-18T10:32:01.681Z,12.48
2023-02-18T10:34:41.296Z,12.85
2023-02-18T10:37:13.360Z,10.23
2023-02-18T10:39:59.703Z,9.13
2023-02-18T10:42:38.704Z,13.68
2023-02-18T11:18:41.726Z,12.45
2023-02-18T11:21:30.138Z,19.92
2023-02-18T11:23:58.299Z,14.00
2023-02-18T11:26:36.680Z,6.05
2023-02-18T11:29:25.926Z,16.30
2023-02-18T11:31:56.868Z,26.25
2023-02-18T11:34:28.580Z,13.60
2023-02-18T11:36:56.092Z,13.93
2023-02-18T11:39:28.338Z,20.55
2023-02-18T11:42:04.545Z,14.70
2023-02-18T11:44:37.954Z,5.65
2023-02-18T11:47:07.387Z,13.25
2023-02-18T11:49:35.748Z,15.43
2023-02-18T11:52:14.064Z,12.10
2023-02-18T11:54:40.946Z,29.40
2023-02-18T11:57:13.986Z,12.98
2023-02-18T11:59:42.434Z,21.10
2023-02-18T12:02:12.440Z,15.75
2023-02-18T12:04:55.233Z,11.15
2023-02-18T12:07:42.895Z,17.58
2023-02-18T12:10:36.280Z,24.92
2023-02-18T12:13:22.353Z,21.35
2023-02-18T12:16:03.075Z,11.75
2023-02-18T12:19:00.396Z,8.68
2023-02-18T12:21:45.049Z,11.57
2023-02-18T12:24:39.196Z,22.50
2023-02-18T12:27:16.453Z,8.95
2023-02-18T12:29:58.515Z,12.57
2023-02-18T12:32:43.759Z,20.33
2023-02-18T12:50:59.051Z,18.17
2023-02-18T12:53:53.697Z,22.65
2023-02-18T13:00:33.758Z,12.90
2023-02-18T13:03:40.669Z,23.52
2023-02-18T13:06:25.261Z,15.13
2023-02-18T13:08:55.204Z,15.45
2023-02-18T13:11:31.208Z,11.40
2023-02-18T13:14:04.310Z,15.13
2023-02-18T13:16:32.705Z,16.63
2023-02-18T13:19:26.271Z,17.05
2023-02-18T13:21:58.102Z,19.05
2023-02-18T13:24:37.156Z,8.43
2023-02-18T13:27:36.432Z,14.98
2023-02-18T13:30:23.862Z,24.98
2023-02-18T13:35:49.399Z,14.65
2023-02-18T13:38:26.715Z,18.35
2023-02-18T13:40:53.912Z,17.30
2023-02-18T13:43:36.138Z,6.25
2023-02-18T13:46:07.101Z,11.63
2023-02-18T13:49:07.955Z,10.27
2023-02-18T13:51:51.969Z,14.38
2023-02-18T13:54:21.328Z,8.50
2023-02-18T13:57:05.065Z,25.17
2023-02-18T13:59:38.687Z,17.00
2023-02-18T14:02:21.322Z,20.30
2023-02-18T14:08:39.891Z,12.40
2023-02-18T14:11:12.595Z,7.70
2023-02-18T14:13:43.737Z,14.75
2023-02-18T14:16:11.443Z,21.67
2023-02-18T14:18:41.165Z,14.32
2023-02-18T14:21:14.172Z,8.52
2023-02-18T14:23:42.416Z,12.90
2023-02-18T14:26:15.241Z,13.07
2023-02-18T14:28:47.535Z,13.40
2023-02-18T14:31:17.117Z,13.75
2023-02-18T14:33:50.476Z,20.52
2023-02-18T14:36:45.675Z,13.20
2023-02-18T14:39:41.724Z,20.92
2023-02-18T14:42:08.341Z,13.13
2023-02-18T14:45:10.554Z,12.30
2023-02-18T14:48:09.642Z,13.18
2023-02-18T14:50:38.881Z,15.35
2023-02-18T14:53:20.103Z,6.68
2023-02-18T14:55:50.301Z,6.80
2023-02-18T14:58:39.426Z,7.72
2023-02-18T15:01:15.703Z,21.02
2023-02-18T15:03:42.553Z,18.10
2023-02-18T15:06:32.673Z,11.00
2023-02-18T15:12:50.595Z,18.80
2023-02-18T15:15:17.989Z,19.70
2023-02-18T15:17:49.837Z,19.65
2023-02-18T15:20:17.081Z,12.23
2023-02-18T15:22:44.634Z,12.45
2023-02-18T15:25:15.997Z,14.48
2023-02-18T15:27:47.011Z,10.35
2023-02-18T15:30:18.774Z,14.27
2023-02-18T15:32:53.763Z,15.63
2023-02-18T15:35:23.013Z,6.13
2023-02-18T15:37:55.576Z,17.48
2023-02-18T15:40:31.145Z,15.95
2023-02-18T15:43:01.980Z,17.80
2023-02-18T15:45:34.265Z,25.98
2023-02-18T15:48:02.030Z,17.63
2023-02-18T15:50:32.672Z,15.20
2023-02-18T16:20:07.355Z,18.75
2023-02-18T16:22:40.362Z,15.75
2023-02-18T16:25:14.482Z,16.45
2023-02-18T16:28:00.871Z,22.27
2023-02-18T16:30:30.607Z,25.02
2023-02-18T16:32:58.015Z,14.57
2023-02-18T16:35:27.812Z,11.20
2023-02-18T16:37:57.852Z,19.40
2023-02-18T16:40:35.419Z,13.10
2023-02-18T16:43:11.161Z,13.13
2023-02-18T16:45:53.931Z,8.35
2023-02-18T16:48:29.779Z,22.73
2023-02-18T16:50:59.269Z,25.25
2023-02-18T16:53:26.003Z,15.70
2023-02-18T16:55:52.828Z,20.05
2023-02-18T16:58:19.593Z,23.15
2023-02-18T17:00:47.093Z,22.70
2023-02-18T17:03:14.392Z,23.42
2023-02-18T17:05:44.564Z,21.92
2023-02-18T17:08:15.336Z,21.13
2023-02-18T17:10:42.397Z,18.10
2023-02-18T17:13:23.258Z,13.55
2023-02-18T17:15:52.658Z,22.08
2023-02-18T17:18:19.887Z,20.80
2023-02-18T17:20:48.548Z,20.40
2023-02-18T17:23:16.995Z,18.45
2023-02-18T17:25:45.718Z,14.30
2023-02-18T17:28:12.392Z,13.88
2023-02-18T17:30:42.253Z,17.73
2023-02-18T17:33:15.196Z,16.27
2023-02-18T17:35:41.911Z,17.73
2023-02-18T17:38:16.652Z,26.80
2023-02-18T17:43:15.427Z,7.00
2023-02-18T17:45:50.300Z,16.50
2023-02-18T17:48:16.967Z,10.23
2023-02-18T17:50:44.006Z,18.15
2023-02-18T17:53:12.859Z,18.67
2023-02-18T17:55:41.168Z,9.95
2023-02-18T17:58:08.270Z,14.20
2023-02-18T18:00:44.258Z,20.08
2023-02-18T18:03:13.416Z,19.33
2023-02-18T18:05:43.560Z,22.73
2023-02-18T18:08:10.613Z,34.67
2023-02-18T18:10:50.112Z,9.15
2023-02-18T18:13:22.227Z,33.10
2023-02-18T18:15:49.514Z,16.90
2023-02-18T18:18:18.342Z,30.88
2023-02-18T18:20:54.295Z,23.92
2023-02-18T18:23:21.971Z,25.30
2023-02-18T18:25:55.842Z,21.48
2023-02-18T18:33:50.277Z,28.45
2023-02-18T18:36:19.565Z,15.07
2023-02-18T18:38:47.021Z,26.75
2023-02-18T18:41:15.924Z,26.63
2023-02-18T18:43:58.522Z,22.58
2023-02-18T18:46:25.401Z,25.65
2023-02-18T18:48:52.084Z,11.43
2023-02-18T18:51:24.865Z,19.48
2023-02-18T18:53:51.580Z,34.38
2023-02-18T18:56:18.254Z,22.10
2023-02-18T18:58:45.013Z,25.15
2023-02-18T19:01:23.046Z,19.40
2023-02-18T19:03:49.884Z,17.02
2023-02-18T19:06:17.324Z,20.63
2023-02-18T19:08:45.591Z,15.13
2023-02-18T19:11:19.318Z,26.63
2023-02-18T19:13:46.052Z,16.15
2023-02-18T19:16:23.084Z,19.50
2023-02-18T19:18:50.369Z,25.90
2023-02-18T19:21:19.983Z,28.45
2023-02-18T19:23:46.663Z,20.80
2023-02-18T19:26:15.071Z,12.10
2023-02-18T19:28:41.706Z,30.42
2023-02-18T19:31:11.410Z,10.50
2023-02-18T19:33:39.118Z,20.23
2023-02-18T19:36:08.818Z,25.35
2023-02-18T19:38:35.516Z,35.35
2023-02-18T19:41:12.180Z,21.25
2023-02-18T19:43:43.852Z,18.92
2023-02-18T19:46:16.765Z,34.28
2023-02-18T19:48:43.990Z,29.98
2023-02-18T19:51:11.221Z,21.67
2023-02-18T19:53:38.118Z,26.98
2023-02-18T19:56:07.384Z,30.02
2023-02-18T19:58:34.673Z,27.23
2023-02-18T20:01:01.520Z,20.15
2023-02-18T20:03:31.198Z,24.00
2023-02-18T20:05:58.151Z,40.97
2023-02-18T20:08:24.809Z,43.38
2023-02-18T20:10:58.900Z,32.42
2023-02-18T20:13:26.164Z,31.45
2023-02-18T20:15:53.334Z,33.83
2023-02-18T20:18:20.139Z,22.80
2023-02-18T20:20:50.801Z,18.05
2023-02-18T20:23:17.841Z,20.85
2023-02-18T20:25:47.498Z,28.25
2023-02-18T20:28:14.962Z,32.78
2023-02-18T20:30:42.402Z,13.88
2023-02-18T20:33:09.076Z,30.88
2023-02-18T20:35:35.896Z,10.85
2023-02-18T20:38:02.586Z,35.72
2023-02-18T20:40:29.268Z,32.97
2023-02-18T20:42:57.467Z,34.53
2023-02-18T20:45:24.206Z,34.58
2023-02-18T20:47:51.061Z,28.10
2023-02-18T20:50:17.908Z,20.05
2023-02-18T20:52:44.623Z,32.10
2023-02-18T20:55:11.372Z,18.08
2023-02-18T20:57:38.173Z,23.52
2023-02-18T21:00:05.901Z,25.65
2023-02-18T21:02:32.658Z,16.55
2023-02-18T21:04:59.424Z,28.85
2023-02-18T21:07:27.360Z,12.38
2023-02-18T21:09:54.430Z,37.17
2023-02-18T21:12:21.298Z,23.58
2023-02-18T21:14:48.351Z,27.42
2023-02-18T21:17:15.104Z,21.38
2023-02-18T21:19:42.184Z,25.55
2023-02-18T21:22:09.020Z,28.20
2023-02-18T21:24:35.825Z,27.65
2023-02-18T21:27:02.749Z,41.55
2023-02-18T21:29:29.536Z,39.40
2023-02-18T21:31:56.351Z,34.22
2023-02-18T21:34:23.457Z,27.52
2023-02-18T21:36:50.151Z,15.35
2023-02-18T21:39:17.070Z,17.42
2023-02-18T21:41:44.026Z,15.88
2023-02-18T21:44:10.801Z,25.67
2023-02-18T21:46:38.950Z,28.55
2023-02-18T21:49:06.418Z,34.47
2023-02-18T21:51:54.402Z,35.90
2023-02-18T21:54:30.804Z,23.63
2023-02-18T21:56:59.422Z,30.40
2023-02-18T21:59:28.722Z,40.60
2023-02-18T22:01:56.398Z,23.73
2023-02-18T22:04:23.385Z,31.75
2023-02-18T22:06:51.218Z,12.85
2023-02-18T22:09:18.072Z,26.80
2023-02-18T22:11:45.015Z,15.38
2023-02-18T22:14:13.393Z,34.55
2023-02-18T22:16:41.414Z,30.42
2023-02-18T22:19:09.106Z,37.85
2023-02-18T22:21:35.752Z,22.58
2023-02-18T22:24:03.898Z,24.92
2023-02-18T22:26:30.623Z,41.17
2023-02-18T22:28:58.920Z,31.33
2023-02-18T22:31:28.112Z,22.13
2023-02-18T22:33:56.993Z,33.70
2023-02-18T22:36:25.704Z,46.72
2023-02-18T22:38:53.921Z,24.73
2023-02-18T22:41:23.058Z,24.33
2023-02-18T22:43:57.270Z,41.60
2023-02-18T22:46:24.202Z,27.13
2023-02-18T22:48:51.473Z,21.75
2023-02-18T22:51:25.042Z,26.40
2023-02-18T22:53:53.656Z,23.48
2023-02-18T22:56:21.988Z,12.95
2023-02-18T22:58:50.872Z,28.35
2023-02-18T23:01:31.262Z,28.75
2023-02-18T23:04:03.935Z,31.38
2023-02-18T23:06:30.705Z,33.38
2023-02-18T23:08:57.690Z,33.92
2023-02-18T23:11:24.580Z,31.10
2023-02-18T23:14:09.698Z,15.18
2023-02-18T23:19:37.139Z,46.03
2023-02-18T23:22:04.842Z,31.65
2023-02-18T23:24:34.200Z,40.25
2023-02-18T23:27:01.321Z,27.83
2023-02-18T23:29:28.419Z,31.40
2023-02-18T23:31:55.250Z,38.05
2023-02-18T23:34:22.380Z,30.55
2023-02-18T23:36:49.079Z,34.47
2023-02-18T23:39:18.201Z,48.60
2023-02-18T23:41:45.883Z,36.63
2023-02-18T23:44:18.273Z,41.80
2023-02-18T23:46:45.033Z,52.30
2023-02-18T23:49:17.271Z,30.70
2023-02-18T23:51:44.581Z,32.47
2023-02-18T23:54:11.809Z,35.95
2023-02-18T23:56:38.776Z,40.53
2023-02-18T23:59:16.028Z,43.22
